Time;durP1;ratioP1;P1;durP2;ratioP2;P2;SDS_P1;SDS_P2;PMS_P1;PMS_P2;Temp;Humidity;BMP_temperature;BMP_pressure;BME280_temperature;BME280_humidity;BME280_pressure;Samples;Min_cycle;Max_cycle;Signal;HPM_P1;HPM_P2
2021/08/13 00:01:55;;;;;;;;;;;;;;;26.27;36.02;101228.59;5090708;28;934;-34
2021/08/13 00:04:20;;;;;;;;;;;;;;;26.22;36.05;101225.56;5078484;28;795;-37
2021/08/13 00:06:46;;;;;;;;;;;;;;;26.22;36.34;101230.94;5078239;28;829;-35
2021/08/13 00:09:11;;;;;;;;;;;;;;;26.39;36.06;101221.91;5078238;28;1982;-36
2021/08/13 00:11:37;;;;;;;;;;;;;;;26.29;36.10;101224.72;5082775;28;1138;-37
2021/08/13 00:14:02;;;;;;;;;;;;;;;26.28;36.04;101225.75;5098243;28;767;-33
2021/08/13 00:16:27;;;;;;;;;;;;;;;26.33;36.04;101221.72;5094423;28;962;-31
2021/08/13 00:18:52;;;;;;;;;;;;;;;26.29;35.87;101213.09;5076595;28;1361;-36
2021/08/13 00:21:18;;;;;;;;;;;;;;;26.27;35.86;101207.03;5077809;28;875;-36
2021/08/13 00:23:43;;;;;;;;;;;;;;;26.28;35.86;101200.63;5077816;28;776;-36
2021/08/13 00:26:08;;;;;;;;;;;;;;;26.26;36.19;101211.56;5076852;28;832;-35
2021/08/13 00:28:34;;;;;;;;;;;;;;;26.25;35.93;101217.97;5077559;28;1894;-33
2021/08/13 00:30:59;;;;;;;;;;;;;;;26.20;36.27;101219.47;5077993;28;760;-31
2021/08/13 00:33:24;;;;;;;;;;;;;;;26.24;35.92;101218.16;5097495;28;954;-35
2021/08/13 00:35:49;;;;;;;;;;;;;;;26.16;36.01;101230.59;5098269;28;783;-35
2021/08/13 00:38:15;;;;;;;;;;;;;;;26.23;35.89;101235.31;5097996;28;924;-36
2021/08/13 00:40:40;;;;;;;;;;;;;;;26.19;36.02;101242.06;5097832;28;775;-35
2021/08/13 00:43:05;;;;;;;;;;;;;;;26.21;35.91;101245.44;5098337;28;830;-34
2021/08/13 00:45:30;;;;;;;;;;;;;;;26.17;36.04;101245.75;5097744;28;839;-35
2021/08/13 00:47:56;;;;;;;;;;;;;;;26.16;35.93;101245.91;5081082;28;1038;-35
2021/08/13 00:50:21;;;;;;;;;;;;;;;26.22;36.03;101250.69;5076283;28;1914;-36
2021/08/13 00:52:46;;;;;;;;;;;;;;;26.19;35.98;101247.47;5077041;28;759;-37
2021/08/13 00:55:12;;;;;;;;;;;;;;;26.16;35.77;101246.78;5076581;28;759;-37
2021/08/13 00:57:37;;;;;;;;;;;;;;;26.27;35.77;101250.19;5077400;28;807;-36
2021/08/13 01:00:02;;;;;;;;;;;;;;;26.29;35.62;101242.78;5076064;28;830;-35
2021/08/13 01:02:28;;;;;;;;;;;;;;;26.21;36.11;101253.53;5088905;28;975;-35
2021/08/13 01:04:53;;;;;;;;;;;;;;;26.22;35.98;101252.53;5097768;28;819;-32
2021/08/13 01:07:18;;;;;;;;;;;;;;;26.21;35.98;101238.19;5097107;28;752;-34
2021/08/13 01:09:44;;;;;;;;;;;;;;;26.17;36.00;101248.44;5097362;28;2000;-35
2021/08/13 01:12:09;;;;;;;;;;;;;;;26.15;35.94;101246.94;5087711;28;1131;-33
2021/08/13 01:14:46;;;;;;;;;;;;;;;26.20;35.77;101239.22;5076853;28;829;-35
2021/08/13 01:17:12;;;;;;;;;;;;;;;26.09;35.85;101244.91;5086736;28;1001;-35
2021/08/13 01:19:56;;;;;;;;;;;;;;;26.13;35.69;101241.72;5095537;28;771;-37
2021/08/13 01:22:23;;;;;;;;;;;;;;;26.03;36.23;101244.56;5096878;28;768;-36
2021/08/13 01:24:49;;;;;;;;;;;;;;;26.07;35.98;101244.22;5096165;28;799;-35
2021/08/13 01:27:15;;;;;;;;;;;;;;;26.13;35.99;101243.56;5096150;28;1249;-37
2021/08/13 01:29:42;;;;;;;;;;;;;;;26.10;36.08;101247.44;5095454;28;1889;-37
2021/08/13 01:32:17;;;;;;;;;;;;;;;26.22;35.60;101245.28;5087777;28;950;-36
2021/08/13 01:34:43;;;;;;;;;;;;;;;26.13;35.81;101251.66;5075262;28;807;-36
2021/08/13 01:37:08;;;;;;;;;;;;;;;26.13;35.87;101248.94;5074954;28;815;-37
2021/08/13 01:39:34;;;;;;;;;;;;;;;26.21;35.77;101246.28;5076864;28;780;-35
2021/08/13 01:41:59;;;;;;;;;;;;;;;26.16;35.59;101251.31;5075677;28;827;-37
2021/08/13 01:44:25;;;;;;;;;;;;;;;26.13;35.39;101239.03;5074684;28;744;-36
2021/08/13 01:46:50;;;;;;;;;;;;;;;26.20;35.36;101238.34;5083318;28;962;-36
2021/08/13 01:49:18;;;;;;;;;;;;;;;26.13;35.69;101240.84;5096603;28;1993;-35
2021/08/13 01:51:44;;;;;;;;;;;;;;;26.20;35.08;101241.91;5096440;28;787;-37
2021/08/13 01:54:09;;;;;;;;;;;;;;;26.13;35.53;101243.56;5097281;28;727;-35
2021/08/13 01:56:37;;;;;;;;;;;;;;;26.21;35.53;101240.06;5096612;28;867;-35
2021/08/13 01:59:03;;;;;;;;;;;;;;;26.14;35.37;101243.38;5094966;28;760;-36
2021/08/13 02:01:28;;;;;;;;;;;;;;;26.13;35.17;101239.03;5091513;28;1018;-36
2021/08/13 02:03:54;;;;;;;;;;;;;;;26.14;35.49;101240.69;5076904;28;819;-36
2021/08/13 02:06:19;;;;;;;;;;;;;;;26.23;35.21;101246.09;5075793;28;879;-35
2021/08/13 02:08:44;;;;;;;;;;;;;;;26.15;35.27;101252.34;5075343;28;1898;-35
2021/08/13 02:11:10;;;;;;;;;;;;;;;26.17;35.32;101255.72;5075583;28;1134;-34
2021/08/13 02:13:37;;;;;;;;;;;;;;;26.23;35.34;101255.06;5095299;28;846;-36
2021/08/13 02:16:04;;;;;;;;;;;;;;;25.54;35.43;101157.09;5097153;28;811;-36
2021/08/13 02:18:29;;;;;;;;;;;;;;;26.20;35.36;101257.22;5075117;28;838;-34
2021/08/13 02:20:55;;;;;;;;;;;;;;;26.19;35.18;101263.66;5076149;28;792;-35
2021/08/13 02:23:21;;;;;;;;;;;;;;;26.19;35.12;101261.81;5075906;28;784;-36
2021/08/13 02:25:46;;;;;;;;;;;;;;;26.21;35.25;101267.03;5076258;28;732;-34
2021/08/13 02:28:12;;;;;;;;;;;;;;;26.07;35.62;101257.69;5076471;28;807;-37
2021/08/13 02:30:37;;;;;;;;;;;;;;;26.02;35.56;101259.06;5075829;28;1991;-35
2021/08/13 02:33:02;;;;;;;;;;;;;;;26.17;35.19;101255.72;5092636;28;946;-35
2021/08/13 02:35:28;;;;;;;;;;;;;;;26.13;35.25;101260.59;5096689;28;945;-34
2021/08/13 02:38:12;;;;;;;;;;;;;;;26.13;35.22;101263.28;5096621;28;747;-36
2021/08/13 02:40:38;;;;;;;;;;;;;;;26.15;35.08;101271.22;5096406;28;811;-35
2021/08/13 02:43:04;;;;;;;;;;;;;;;26.12;35.20;101283.19;5095291;28;533;-36
2021/08/13 02:45:29;;;;;;;;;;;;;;;26.10;35.35;101273.53;5096156;28;827;-36
2021/08/13 02:47:55;;;;;;;;;;;;;;;26.04;35.25;101289.38;5081593;28;1218;-36
2021/08/13 02:50:21;;;;;;;;;;;;;;;26.00;35.55;101279.94;5079453;28;1913;-35
2021/08/13 02:52:48;;;;;;;;;;;;;;;26.09;35.37;101294.25;5078416;28;858;-33
2021/08/13 02:55:15;;;;;;;;;;;;;;;26.11;35.21;101276.06;5078578;28;847;-37
2021/08/13 02:57:40;;;;;;;;;;;;;;;26.04;35.57;101285.84;5079543;28;815;-37
2021/08/13 03:00:06;;;;;;;;;;;;;;;26.05;35.49;101282.13;5078041;28;972;-36
2021/08/13 03:02:31;;;;;;;;;;;;;;;26.10;35.24;101281.63;5091269;28;927;-36
2021/08/13 03:04:56;;;;;;;;;;;;;;;26.14;35.17;101289.22;5098864;28;862;-34
2021/08/13 03:07:21;;;;;;;;;;;;;;;26.12;35.18;101295.81;5099746;28;771;-36
2021/08/13 03:09:47;;;;;;;;;;;;;;;26.06;35.19;101291.91;5099530;28;1901;-34
2021/08/13 03:12:12;;;;;;;;;;;;;;;26.03;35.52;101286.84;5090648;28;1122;-34
2021/08/13 03:14:38;;;;;;;;;;;;;;;26.03;35.61;101290.38;5079085;28;822;-36
2021/08/13 03:17:03;;;;;;;;;;;;;;;25.99;35.46;101293.56;5087791;28;943;-35
2021/08/13 03:19:29;;;;;;;;;;;;;;;26.07;35.31;101292.75;5100082;28;787;-36
2021/08/13 03:21:54;;;;;;;;;;;;;;;25.95;35.76;101292.19;5097196;28;1031;-36
2021/08/13 03:24:19;;;;;;;;;;;;;;;25.97;35.86;101303.66;5097895;28;970;-36
2021/08/13 03:26:44;;;;;;;;;;;;;;;25.98;38.68;101300.81;5098194;28;795;-35
2021/08/13 03:29:10;;;;;;;;;;;;;;;26.11;36.93;101292.25;5097921;28;1897;-38
2021/08/13 03:31:36;;;;;;;;;;;;;;;26.13;36.72;101300.19;5093969;28;1020;-36
2021/08/13 03:34:02;;;;;;;;;;;;;;;26.22;36.73;101301.06;5079165;28;788;-41
2021/08/13 03:36:27;;;;;;;;;;;;;;;25.81;41.12;101299.88;5079061;28;796;-41
2021/08/13 03:38:53;;;;;;;;;;;;;;;25.46;45.34;101299.00;5079298;28;748;-41
2021/08/13 03:41:18;;;;;;;;;;;;;;;25.80;44.38;101308.97;5078628;28;919;-37
2021/08/13 03:43:43;;;;;;;;;;;;;;;25.30;47.01;101304.09;5078559;28;795;-41
2021/08/13 03:46:09;;;;;;;;;;;;;;;24.96;49.51;101310.22;5079297;28;1007;-38
2021/08/13 03:48:34;;;;;;;;;;;;;;;25.21;47.91;101310.41;5098856;28;1965;-42
2021/08/13 03:50:59;;;;;;;;;;;;;;;25.05;51.18;101308.44;5098315;28;979;-41
2021/08/13 03:53:25;;;;;;;;;;;;;;;25.45;48.66;101319.69;5098722;28;756;-34
2021/08/13 03:55:50;;;;;;;;;;;;;;;25.59;48.87;101314.72;5099002;28;791;-40
2021/08/13 03:58:15;;;;;;;;;;;;;;;25.66;43.74;101315.78;5097649;28;781;-36
2021/08/13 04:00:40;;;;;;;;;;;;;;;25.91;44.02;101316.78;5099090;28;766;-39
2021/08/13 04:03:06;;;;;;;;;;;;;;;25.96;43.93;101320.84;5081309;28;1036;-37
2021/08/13 04:05:31;;;;;;;;;;;;;;;25.81;43.09;101318.75;5078239;28;808;-33
2021/08/13 04:07:56;;;;;;;;;;;;;;;25.91;44.36;101313.22;5078548;28;779;-35
2021/08/13 04:10:21;;;;;;;;;;;;;;;26.54;42.01;101318.38;5078520;28;1898;-32
2021/08/13 04:12:47;;;;;;;;;;;;;;;26.84;41.14;101315.22;5091679;28;969;-31
2021/08/13 04:15:12;;;;;;;;;;;;;;;26.82;40.95;101319.94;5099088;28;760;-40
2021/08/13 04:17:37;;;;;;;;;;;;;;;26.83;39.10;101311.66;5085022;28;874;-39
2021/08/13 04:20:03;;;;;;;;;;;;;;;26.70;39.06;101317.56;5077608;28;748;-36
2021/08/13 04:22:28;;;;;;;;;;;;;;;25.92;42.63;101315.75;5077988;28;775;-36
2021/08/13 04:24:53;;;;;;;;;;;;;;;26.78;39.95;101325.66;5078322;28;811;-36
2021/08/13 04:27:19;;;;;;;;;;;;;;;26.59;41.20;101323.28;5077559;28;732;-37
2021/08/13 04:29:44;;;;;;;;;;;;;;;26.99;38.95;101323.50;5078179;28;1966;-37
2021/08/13 04:32:10;;;;;;;;;;;;;;;26.98;39.04;101328.03;5086842;28;978;-36
2021/08/13 04:34:35;;;;;;;;;;;;;;;26.22;41.27;101328.03;5097454;28;886;-39
2021/08/13 04:37:01;;;;;;;;;;;;;;;26.02;41.68;101321.06;5098303;28;796;-39
2021/08/13 04:39:26;;;;;;;;;;;;;;;25.96;41.49;101331.63;5098234;28;795;-39
2021/08/13 04:41:51;;;;;;;;;;;;;;;26.16;42.43;101335.75;5097354;28;871;-40
2021/08/13 04:44:16;;;;;;;;;;;;;;;25.65;43.21;101331.13;5097856;28;763;-39
2021/08/13 04:46:42;;;;;;;;;;;;;;;26.47;39.18;101347.88;5092199;28;958;-39
2021/08/13 04:49:07;;;;;;;;;;;;;;;26.32;40.90;101344.94;5077012;28;1914;-38
2021/08/13 04:51:32;;;;;;;;;;;;;;;26.61;37.90;101345.56;5077532;28;792;-39
2021/08/13 04:54:00;;;;;;;;;;;;;;;26.52;37.72;101350.94;5077571;28;749;-37
2021/08/13 04:56:26;;;;;;;;;;;;;;;26.59;37.56;101359.19;5076994;28;752;-37
2021/08/13 04:58:52;;;;;;;;;;;;;;;26.60;37.60;101363.59;5076351;28;905;-35
2021/08/13 05:01:17;;;;;;;;;;;;;;;26.52;37.69;101356.31;5078117;28;1040;-43
2021/08/13 05:03:42;;;;;;;;;;;;;;;26.86;36.74;101362.63;5097399;28;843;-39
2021/08/13 05:06:08;;;;;;;;;;;;;;;26.37;37.96;101363.34;5097412;28;772;-40
2021/08/13 05:08:33;;;;;;;;;;;;;;;26.61;37.12;101361.75;5097534;28;1898;-40
2021/08/13 05:10:58;;;;;;;;;;;;;;;26.62;37.41;101369.69;5096726;28;859;-42
2021/08/13 05:13:24;;;;;;;;;;;;;;;26.63;36.94;101371.34;5077780;28;1245;-40
2021/08/13 05:15:49;;;;;;;;;;;;;;;26.54;37.93;101372.34;5077150;28;824;-41
2021/08/13 05:18:15;;;;;;;;;;;;;;;26.58;37.24;101376.38;5095820;28;946;-41
2021/08/13 05:20:40;;;;;;;;;;;;;;;26.38;37.55;101373.97;5097072;28;735;-41
2021/08/13 05:23:05;;;;;;;;;;;;;;;26.65;36.62;101369.34;5096403;28;855;-40
2021/08/13 05:25:31;;;;;;;;;;;;;;;26.86;37.85;101376.13;5097117;28;776;-41
2021/08/13 05:27:56;;;;;;;;;;;;;;;26.50;38.28;101374.53;5097005;28;811;-40
2021/08/13 05:30:21;;;;;;;;;;;;;;;26.57;37.44;101377.41;5097046;28;1894;-41
2021/08/13 05:32:49;;;;;;;;;;;;;;;26.55;37.93;101379.44;5082045;28;953;-41
2021/08/13 05:35:14;;;;;;;;;;;;;;;26.70;37.09;101379.63;5076409;28;918;-42
2021/08/13 05:37:40;;;;;;;;;;;;;;;26.82;36.31;101385.56;5076784;28;795;-42
2021/08/13 05:40:05;;;;;;;;;;;;;;;26.46;37.35;101383.94;5077014;28;815;-40
2021/08/13 05:42:31;;;;;;;;;;;;;;;26.80;37.91;101381.34;5076154;28;827;-42
2021/08/13 05:44:56;;;;;;;;;;;;;;;27.03;38.10;101384.28;5076542;28;854;-42
2021/08/13 05:47:21;;;;;;;;;;;;;;;27.25;37.83;101387.31;5087898;28;1126;-40
2021/08/13 05:49:47;;;;;;;;;;;;;;;26.89;39.55;101396.56;5096258;28;1976;-41
2021/08/13 05:52:12;;;;;;;;;;;;;;;27.13;38.90;101395.75;5096855;28;831;-42
2021/08/13 05:54:37;;;;;;;;;;;;;;;27.00;39.38;101390.84;5096761;28;806;-42
2021/08/13 05:57:03;;;;;;;;;;;;;;;27.21;38.99;101399.50;5096564;28;808;-42
2021/08/13 05:59:28;;;;;;;;;;;;;;;27.17;39.26;101400.81;5096911;28;771;-41
2021/08/13 06:01:53;;;;;;;;;;;;;;;27.32;39.31;101401.84;5089178;28;945;-40
2021/08/13 06:04:19;;;;;;;;;;;;;;;27.33;39.66;101405.38;5075984;28;824;-42
2021/08/13 06:06:44;;;;;;;;;;;;;;;27.29;39.48;101415.72;5076605;28;819;-40
2021/08/13 06:09:09;;;;;;;;;;;;;;;27.35;39.14;101403.38;5076579;28;1969;-42
2021/08/13 06:11:35;;;;;;;;;;;;;;;27.39;39.42;101416.34;5080017;28;1131;-41
2021/08/13 06:14:00;;;;;;;;;;;;;;;27.21;39.63;101416.53;5096266;28;743;-42
2021/08/13 06:16:25;;;;;;;;;;;;;;;27.36;39.33;101418.59;5093836;28;946;-40
2021/08/13 06:18:51;;;;;;;;;;;;;;;27.20;39.62;101424.78;5076136;28;847;-40
2021/08/13 06:21:16;;;;;;;;;;;;;;;27.44;37.86;101415.03;5076538;28;827;-41
2021/08/13 06:23:41;;;;;;;;;;;;;;;27.71;37.74;101416.53;5080400;28;887;-42
2021/08/13 06:26:07;;;;;;;;;;;;;;;27.45;38.86;101432.91;5079931;28;849;-40
2021/08/13 06:28:33;;;;;;;;;;;;;;;27.48;38.56;101425.31;5080291;28;886;-40
2021/08/13 06:30:58;;;;;;;;;;;;;;;27.37;38.72;101431.06;5080471;28;1897;-43
2021/08/13 06:33:23;;;;;;;;;;;;;;;27.57;38.32;101422.63;5099139;28;990;-40
2021/08/13 06:35:49;;;;;;;;;;;;;;;27.80;38.26;101419.25;5100278;28;1459;-43
2021/08/13 06:38:14;;;;;;;;;;;;;;;27.55;38.55;101422.78;5100287;28;843;-43
2021/08/13 06:40:39;;;;;;;;;;;;;;;27.71;38.54;101423.84;5099905;28;803;-40
2021/08/13 06:43:04;;;;;;;;;;;;;;;27.68;37.24;101416.91;5100461;28;855;-42
2021/08/13 06:45:30;;;;;;;;;;;;;;;27.70;36.86;101427.53;5093985;28;998;-41
2021/08/13 06:47:55;;;;;;;;;;;;;;;27.91;37.81;101432.41;5094983;28;1087;-39
2021/08/13 06:50:20;;;;;;;;;;;;;;;27.89;37.33;101426.34;5099956;28;1957;-42
2021/08/13 06:52:46;;;;;;;;;;;;;;;27.68;37.17;101430.41;5099906;28;755;-41
2021/08/13 06:55:11;;;;;;;;;;;;;;;27.75;36.69;101427.88;5099918;28;764;-39
2021/08/13 06:57:36;;;;;;;;;;;;;;;27.65;36.36;101432.56;5080754;28;751;-40
2021/08/13 07:00:06;;;;;;;;;;;;;;;27.64;35.87;101431.75;5079873;28;833;-43
2021/08/13 07:02:31;;;;;;;;;;;;;;;28.10;35.53;101443.84;5091694;28;967;-37
2021/08/13 07:04:57;;;;;;;;;;;;;;;27.93;35.55;101441.19;5099444;28;803;-40
2021/08/13 07:07:22;;;;;;;;;;;;;;;28.15;35.17;101446.03;5090171;28;743;-40
2021/08/13 07:09:47;;;;;;;;;;;;;;;28.41;35.35;101445.00;5081580;28;1966;-39
2021/08/13 07:12:16;;;;;;;;;;;;;;;28.23;35.10;101436.03;5088785;28;1124;-41
2021/08/13 07:14:41;;;;;;;;;;;;;;;28.24;34.22;101439.59;5099502;28;709;-40
2021/08/13 07:17:06;;;;;;;;;;;;;;;28.66;34.27;101442.19;5089883;28;962;-38
2021/08/13 07:19:32;;;;;;;;;;;;;;;28.60;34.22;101446.41;5079253;28;808;-40
2021/08/13 07:21:57;;;;;;;;;;;;;;;28.50;33.73;101449.34;5079725;28;838;-40
2021/08/13 07:24:23;;;;;;;;;;;;;;;28.25;34.10;101452.09;5079022;28;879;-41
2021/08/13 07:26:48;;;;;;;;;;;;;;;28.70;33.81;101457.88;5079146;28;772;-38
2021/08/13 07:29:14;;;;;;;;;;;;;;;28.56;33.75;101453.22;5079360;28;1893;-43
2021/08/13 07:31:39;;;;;;;;;;;;;;;28.50;33.34;101451.19;5083825;28;1036;-39
2021/08/13 07:34:05;;;;;;;;;;;;;;;28.75;33.57;101451.94;5098151;28;775;-36
2021/08/13 07:36:30;;;;;;;;;;;;;;;28.82;33.68;101449.34;5099657;28;807;-36
2021/08/13 07:38:55;;;;;;;;;;;;;;;28.72;33.71;101446.88;5099463;28;840;-35
2021/08/13 07:41:21;;;;;;;;;;;;;;;29.00;33.31;101456.38;5099050;28;795;-36
2021/08/13 07:43:46;;;;;;;;;;;;;;;29.24;32.99;101460.81;5099590;28;764;-36
2021/08/13 07:46:11;;;;;;;;;;;;;;;29.37;32.54;101462.06;5097474;28;1012;-37
2021/08/13 07:48:37;;;;;;;;;;;;;;;29.31;32.78;101459.06;5078491;28;1225;-37
2021/08/13 07:51:02;;;;;;;;;;;;;;;29.34;32.90;101460.56;5078770;28;1985;-37
2021/08/13 07:53:27;;;;;;;;;;;;;;;29.32;32.92;101455.34;5078733;28;724;-37
2021/08/13 07:55:53;;;;;;;;;;;;;;;29.34;32.77;101458.69;5078433;28;747;-37
2021/08/13 07:58:18;;;;;;;;;;;;;;;29.33;32.94;101459.72;5078510;28;744;-36
2021/08/13 08:00:43;;;;;;;;;;;;;;;29.37;32.64;101457.50;5078981;28;815;-35
2021/08/13 08:03:08;;;;;;;;;;;;;;;29.29;33.04;101461.13;5095820;28;1029;-36
2021/08/13 08:05:34;;;;;;;;;;;;;;;29.31;33.25;101458.22;5098627;28;839;-37
2021/08/13 08:07:59;;;;;;;;;;;;;;;29.37;33.05;101459.34;5098754;28;779;-42
2021/08/13 08:10:24;;;;;;;;;;;;;;;29.17;33.54;101466.09;5098168;28;1906;-35
2021/08/13 08:12:49;;;;;;;;;;;;;;;29.01;33.55;101455.38;5084022;28;1119;-36
2021/08/13 08:15:15;;;;;;;;;;;;;;;28.91;33.88;101451.00;5078214;28;788;-36
2021/08/13 08:17:40;;;;;;;;;;;;;;;28.80;33.50;101456.81;5092064;28;955;-35
2021/08/13 08:20:06;;;;;;;;;;;;;;;28.56;32.36;101451.34;5098408;28;811;-35
2021/08/13 08:22:31;;;;;;;;;;;;;;;28.92;33.18;101452.69;5098279;28;844;-34
2021/08/13 08:24:57;;;;;;;;;;;;;;;28.73;33.34;101456.66;5097841;28;795;-32
2021/08/13 08:27:22;;;;;;;;;;;;;;;28.85;32.91;101452.56;5098488;28;843;-34
2021/08/13 08:29:47;;;;;;;;;;;;;;;28.86;33.09;101450.72;5098444;28;2312;-36
2021/08/13 08:32:12;;;;;;;;;;;;;;;28.60;31.36;101451.81;5087783;28;1005;-35
2021/08/13 08:34:38;;;;;;;;;;;;;;;28.87;30.75;101451.53;5077683;28;747;-34
2021/08/13 08:37:05;;;;;;;;;;;;;;;28.92;31.40;101447.28;5077822;28;764;-34
2021/08/13 08:39:30;;;;;;;;;;;;;;;29.05;31.80;101445.84;5077311;28;835;-34
2021/08/13 08:41:56;;;;;;;;;;;;;;;29.21;32.48;101440.31;5077617;28;756;-35
2021/08/13 08:44:21;;;;;;;;;;;;;;;29.09;33.56;101444.50;5077864;28;861;-33
2021/08/13 08:46:46;;;;;;;;;;;;;;;29.26;32.19;101439.78;5083097;28;1002;-34
2021/08/13 08:49:12;;;;;;;;;;;;;;;29.37;31.32;101440.38;5096352;28;1969;-34
2021/08/13 08:51:37;;;;;;;;;;;;;;;29.56;31.10;101433.63;5096992;28;811;-35
2021/08/13 08:54:03;;;;;;;;;;;;;;;29.55;31.31;101434.63;5097350;28;823;-34
2021/08/13 08:56:28;;;;;;;;;;;;;;;29.58;31.86;101439.69;5096119;28;854;-35
2021/08/13 08:58:53;;;;;;;;;;;;;;;29.51;32.29;101438.75;5096638;28;791;-35
2021/08/13 09:01:19;;;;;;;;;;;;;;;29.50;32.44;101435.19;5094859;28;958;-35
2021/08/13 09:03:44;;;;;;;;;;;;;;;29.52;32.72;101433.16;5077373;28;827;-34
2021/08/13 09:06:10;;;;;;;;;;;;;;;29.31;33.84;101444.69;5077561;28;786;-37
2021/08/13 09:08:35;;;;;;;;;;;;;;;29.04;34.48;101445.03;5077096;28;760;-34
2021/08/13 09:11:01;;;;;;;;;;;;;;;29.21;34.23;101439.50;5076995;28;1902;-33
2021/08/13 09:13:26;;;;;;;;;;;;;;;29.19;34.22;101442.41;5096424;28;1195;-36
2021/08/13 09:15:55;;;;;;;;;;;;;;;29.36;34.29;101439.56;5096790;28;831;-34
2021/08/13 09:18:24;;;;;;;;;;;;;;;29.23;34.57;101436.63;5077282;28;990;-36
2021/08/13 09:20:53;;;;;;;;;;;;;;;29.37;35.10;101440.38;5077243;28;807;-35
2021/08/13 09:23:41;;;;;;;;;;;;;;;29.21;34.70;101445.75;5076605;28;827;-35
2021/08/13 09:26:06;;;;;;;;;;;;;;;29.41;34.81;101442.53;5076816;28;744;-34
2021/08/13 09:28:38;;;;;;;;;;;;;;;29.35;34.86;101454.13;5076747;28;1009;-34
2021/08/13 09:31:30;;;;;;;;;;;;;;;29.66;34.48;101442.34;5076845;28;1897;-34
2021/08/13 09:33:56;;;;;;;;;;;;;;;30.05;34.15;101434.19;5092823;28;1339;-34
2021/08/13 09:36:22;;;;;;;;;;;;;;;29.63;34.67;101442.72;5097388;28;770;-34
2021/08/13 09:38:49;;;;;;;;;;;;;;;29.72;34.63;101448.94;5096695;28;818;-34
2021/08/13 09:41:15;;;;;;;;;;;;;;;29.50;34.60;101446.03;5096928;28;731;-35
2021/08/13 09:43:51;;;;;;;;;;;;;;;29.89;34.48;101446.06;5097219;28;731;-35
2021/08/13 09:46:16;;;;;;;;;;;;;;;30.21;33.89;101441.34;5094515;28;950;-34
2021/08/13 09:48:41;;;;;;;;;;;;;;;30.08;33.95;101449.25;5076580;28;1123;-35
2021/08/13 09:51:16;;;;;;;;;;;;;;;29.88;33.55;101452.53;5076642;28;2028;-34
2021/08/13 09:53:55;;;;;;;;;;;;;;;29.99;33.76;101453.91;5074608;28;1303;-33
2021/08/13 09:56:24;;;;;;;;;;;;;;;29.84;33.99;101446.63;5074772;28;824;-33
2021/08/13 09:58:49;;;;;;;;;;;;;;;29.92;34.22;101456.53;5076649;28;1040;-34
2021/08/13 10:01:14;;;;;;;;;;;;;;;29.75;34.43;101447.72;5077390;28;1009;-34
2021/08/13 10:03:50;;;;;;;;;;;;;;;29.41;35.12;101452.56;5097168;28;818;-34
2021/08/13 10:06:15;;;;;;;;;;;;;;;29.63;34.04;101469.84;5096065;28;870;-34
2021/08/13 10:08:41;;;;;;;;;;;;;;;29.22;34.58;101470.97;5094605;28;1302;-36
2021/08/13 10:11:10;;;;;;;;;;;;;;;29.75;34.09;101475.69;5096560;28;1890;-35
2021/08/13 10:13:42;;;;;;;;;;;;;;;29.02;34.31;101473.31;5076777;28;779;-34
2021/08/13 10:16:07;;;;;;;;;;;;;;;29.43;34.10;101469.47;5076417;28;955;-34
2021/08/13 10:18:35;;;;;;;;;;;;;;;29.51;34.10;101476.72;5096097;28;799;-34
2021/08/13 10:21:00;;;;;;;;;;;;;;;29.35;34.37;101470.38;5096106;28;801;-33
2021/08/13 10:23:26;;;;;;;;;;;;;;;29.59;34.07;101471.25;5094432;28;891;-34
2021/08/13 10:25:51;;;;;;;;;;;;;;;29.47;35.40;101476.22;5096555;28;983;-34
2021/08/13 10:28:16;;;;;;;;;;;;;;;29.13;35.70;101472.91;5096368;28;759;-33
2021/08/13 10:30:41;;;;;;;;;;;;;;;29.58;35.59;101464.09;5094407;28;1917;-34
2021/08/13 10:33:07;;;;;;;;;;;;;;;29.61;35.23;101469.22;5078700;28;958;-34
2021/08/13 10:35:35;;;;;;;;;;;;;;;29.60;36.11;101474.78;5076253;28;752;-33
2021/08/13 10:38:01;;;;;;;;;;;;;;;29.34;37.20;101476.84;5075848;28;755;-33
2021/08/13 10:40:26;;;;;;;;;;;;;;;29.53;36.30;101475.50;5076298;28;784;-35
2021/08/13 10:42:51;;;;;;;;;;;;;;;29.92;35.71;101476.38;5074513;28;814;-33
2021/08/13 10:45:20;;;;;;;;;;;;;;;29.74;37.11;101470.44;5074312;28;883;-34
2021/08/13 10:48:01;;;;;;;;;;;;;;;29.91;36.01;101463.81;5090151;28;1096;-34
2021/08/13 10:50:27;;;;;;;;;;;;;;;30.19;35.46;101465.94;5095164;28;1894;-34
2021/08/13 10:52:52;;;;;;;;;;;;;;;30.28;35.39;101468.56;5095437;28;836;-35
2021/08/13 10:55:36;;;;;;;;;;;;;;;30.32;35.54;101464.44;5096232;28;796;-36
2021/08/13 10:58:01;;;;;;;;;;;;;;;29.96;32.38;101471.44;5095620;28;788;-35
2021/08/13 11:00:29;;;;;;;;;;;;;;;30.02;33.47;101467.09;5095973;28;800;-36
2021/08/13 11:03:13;;;;;;;;;;;;;;;29.87;35.89;101470.66;5078876;28;1271;-38
2021/08/13 11:05:48;;;;;;;;;;;;;;;30.06;35.82;101469.25;5076010;28;891;-36
2021/08/13 11:08:14;;;;;;;;;;;;;;;30.12;35.65;101464.97;5075869;28;841;-34
2021/08/13 11:10:39;;;;;;;;;;;;;;;30.24;35.69;101459.97;5079326;28;1919;-35
2021/08/13 11:13:20;;;;;;;;;;;;;;;29.94;36.34;101462.63;5095750;28;1206;-38
2021/08/13 11:15:45;;;;;;;;;;;;;;;30.04;36.29;101468.63;5099524;28;843;-34
2021/08/13 11:18:26;;;;;;;;;;;;;;;30.21;35.76;101460.34;5081519;28;938;-35
2021/08/13 11:20:51;;;;;;;;;;;;;;;30.43;35.57;101447.69;5079401;28;784;-35
2021/08/13 11:23:16;;;;;;;;;;;;;;;30.50;35.47;101449.63;5078753;28;895;-35
2021/08/13 11:25:48;;;;;;;;;;;;;;;30.47;35.65;101450.88;5079244;28;748;-34
2021/08/13 11:28:14;;;;;;;;;;;;;;;30.34;35.38;101451.53;5079011;28;818;-36
2021/08/13 11:30:40;;;;;;;;;;;;;;;29.69;38.06;101452.00;5078998;28;1906;-36
2021/08/13 11:33:24;;;;;;;;;;;;;;;26.57;41.61;101447.56;5096011;28;1021;-37
2021/08/13 11:35:49;;;;;;;;;;;;;;;24.69;43.61;101433.03;5099598;28;808;-35
2021/08/13 11:38:15;;;;;;;;;;;;;;;24.03;44.36;101430.25;5098849;28;926;-34
2021/08/13 11:40:40;;;;;;;;;;;;;;;23.61;44.43;101435.00;5098004;28;1400;-34
2021/08/13 11:43:06;;;;;;;;;;;;;;;23.36;44.59;101430.03;5099299;28;755;-34
2021/08/13 11:45:35;;;;;;;;;;;;;;;23.28;44.79;101435.25;5097467;28;934;-37
2021/08/13 11:48:01;;;;;;;;;;;;;;;23.09;44.52;101426.19;5080739;28;1619;-36
2021/08/13 11:50:26;;;;;;;;;;;;;;;22.65;45.35;101425.66;5093232;28;1914;-35
2021/08/13 11:52:52;;;;;;;;;;;;;;;22.43;45.12;101420.34;5098119;28;855;-34
2021/08/13 11:55:30;;;;;;;;;;;;;;;22.35;45.43;101422.84;5098588;28;726;-36
2021/08/13 11:57:59;;;;;;;;;;;;;;;22.16;45.34;101420.91;5098162;28;1050;-36
2021/08/13 12:00:25;;;;;;;;;;;;;;;22.02;45.42;101417.63;5097627;28;744;-33
2021/08/13 12:03:03;;;;;;;;;;;;;;;21.97;45.56;101417.97;5082827;28;1009;-34
2021/08/13 12:05:35;;;;;;;;;;;;;;;21.78;45.69;101418.72;5078098;28;1309;-35
2021/08/13 12:08:04;;;;;;;;;;;;;;;22.06;45.27;101420.84;5077610;28;764;-32
2021/08/13 12:10:30;;;;;;;;;;;;;;;25.92;38.10;101425.44;5078091;28;1905;-36
2021/08/13 12:12:55;;;;;;;;;;;;;;;27.29;35.52;101423.81;5092693;28;1111;-35
2021/08/13 12:15:30;;;;;;;;;;;;;;;28.00;35.25;101430.53;5097582;28;776;-35
2021/08/13 12:17:55;;;;;;;;;;;;;;;28.28;35.86;101429.28;5081868;28;1005;-35
2021/08/13 12:20:26;;;;;;;;;;;;;;;28.66;35.36;101426.75;5077383;28;788;-34
2021/08/13 12:23:12;;;;;;;;;;;;;;;28.81;34.86;101429.56;5077381;28;803;-36
2021/08/13 12:25:43;;;;;;;;;;;;;;;29.04;35.06;101426.06;5077403;28;1809;-35
2021/08/13 12:28:09;;;;;;;;;;;;;;;29.04;35.04;101420.66;5076999;28;771;-34
2021/08/13 12:30:34;;;;;;;;;;;;;;;29.32;35.29;101424.69;5077572;28;1897;-31
2021/08/13 12:33:00;;;;;;;;;;;;;;;27.73;41.62;101411.81;5093560;28;1021;-34
2021/08/13 12:35:34;;;;;;;;;;;;;;;29.03;37.32;101412.72;5098068;28;815;-34
2021/08/13 12:37:59;;;;;;;;;;;;;;;25.26;42.87;101417.63;5098035;28;812;-34
2021/08/13 12:40:24;;;;;;;;;;;;;;;23.78;44.72;101417.31;5097902;28;768;-34
2021/08/13 12:42:51;;;;;;;;;;;;;;;23.30;45.81;101416.31;5096527;28;795;-35
2021/08/13 12:45:17;;;;;;;;;;;;;;;22.91;46.92;101403.69;5096795;28;932;-33
2021/08/13 12:47:45;;;;;;;;;;;;;;;22.95;47.34;101403.31;5083816;28;1285;-35
2021/08/13 12:50:18;;;;;;;;;;;;;;;25.85;40.90;101402.81;5077294;28;1906;-35
2021/08/13 12:52:59;;;;;;;;;;;;;;;27.59;38.51;101397.09;5077335;28;792;-37